sensor_id;sensor_type;location;lat;lon;timestamp;temperature;humidity
22716;DHT22;11525;51.152;4.456;2023-03-01T00:02:07;1.00;99.90
22716;DHT22;11525;51.152;4.456;2023-03-01T00:04:33;0.90;99.90
22716;DHT22;11525;51.152;4.456;2023-03-01T00:06:59;0.90;99.90
22716;DHT22;11525;51.152;4.456;2023-03-01T00:09:25;1.00;99.90
22716;DHT22;11525;51.152;4.456;2023-03-01T00:11:50;0.90;99.90
22716;DHT22;11525;51.152;4.456;2023-03-01T00:14:16;0.90;99.90
22716;DHT22;11525;51.152;4.456;2023-03-01T00:16:43;0.90;99.90
22716;DHT22;11525;51.152;4.456;2023-03-01T00:19:14;0.90;99.90
22716;DHT22;11525;51.152;4.456;2023-03-01T00:21:41;0.90;99.90
22716;DHT22;11525;51.152;4.456;2023-03-01T00:24:07;0.80;99.90
22716;DHT22;11525;51.152;4.456;2023-03-01T00:26:33;0.80;99.90
22716;DHT22;11525;51.152;4.456;2023-03-01T00:29:00;0.70;99.90
22716;DHT22;11525;51.152;4.456;2023-03-01T00:31:28;0.70;99.90
22716;DHT22;11525;51.152;4.456;2023-03-01T00:34:00;0.70;99.90
22716;DHT22;11525;51.152;4.456;2023-03-01T00:36:30;0.70;99.90
22716;DHT22;11525;51.152;4.456;2023-03-01T00:38:56;0.70;99.90
22716;DHT22;11525;51.152;4.456;2023-03-01T00:41:22;0.70;99.90
22716;DHT22;11525;51.152;4.456;2023-03-01T00:43:49;0.70;99.90
22716;DHT22;11525;51.152;4.456;2023-03-01T00:46:18;0.70;99.90
22716;DHT22;11525;51.152;4.456;2023-03-01T00:48:44;0.70;99.90
22716;DHT22;11525;51.152;4.456;2023-03-01T00:51:19;0.60;99.90
22716;DHT22;11525;51.152;4.456;2023-03-01T00:53:46;0.60;99.90
22716;DHT22;11525;51.152;4.456;2023-03-01T00:56:13;0.60;99.90
22716;DHT22;11525;51.152;4.456;2023-03-01T00:58:40;0.60;99.90
22716;DHT22;11525;51.152;4.456;2023-03-01T01:01:14;0.60;99.90
22716;DHT22;11525;51.152;4.456;2023-03-01T01:03:55;0.60;99.90
22716;DHT22;11525;51.152;4.456;2023-03-01T01:06:23;0.50;99.90
22716;DHT22;11525;51.152;4.456;2023-03-01T01:08:50;0.50;99.90
22716;DHT22;11525;51.152;4.456;2023-03-01T01:11:16;0.40;99.90
22716;DHT22;11525;51.152;4.456;2023-03-01T01:13:45;0.40;99.90
22716;DHT22;11525;51.152;4.456;2023-03-01T01:16:11;0.30;99.90
22716;DHT22;11525;51.152;4.456;2023-03-01T01:18:38;0.30;99.90
22716;DHT22;11525;51.152;4.456;2023-03-01T01:21:09;0.30;99.90
22716;DHT22;11525;51.152;4.456;2023-03-01T01:23:36;0.30;99.90
22716;DHT22;11525;51.152;4.456;2023-03-01T01:26:07;0.30;99.90
22716;DHT22;11525;51.152;4.456;2023-03-01T01:28:33;0.30;99.90
22716;DHT22;11525;51.152;4.456;2023-03-01T01:30:59;0.30;99.90
22716;DHT22;11525;51.152;4.456;2023-03-01T01:33:26;0.30;99.90
22716;DHT22;11525;51.152;4.456;2023-03-01T01:35:52;0.40;99.90
22716;DHT22;11525;51.152;4.456;2023-03-01T01:38:19;0.30;99.90
22716;DHT22;11525;51.152;4.456;2023-03-01T01:40:45;0.30;99.90
22716;DHT22;11525;51.152;4.456;2023-03-01T01:43:38;0.40;99.90
22716;DHT22;11525;51.152;4.456;2023-03-01T01:48:47;0.30;99.90
22716;DHT22;11525;51.152;4.456;2023-03-01T01:51:19;0.30;99.90
22716;DHT22;11525;51.152;4.456;2023-03-01T01:53:49;0.20;99.90
22716;DHT22;11525;51.152;4.456;2023-03-01T01:56:18;0.20;99.90
22716;DHT22;11525;51.152;4.456;2023-03-01T01:58:46;0.20;99.90
22716;DHT22;11525;51.152;4.456;2023-03-01T02:01:13;0.20;99.90
22716;DHT22;11525;51.152;4.456;2023-03-01T02:03:40;0.10;99.90
22716;DHT22;11525;51.152;4.456;2023-03-01T02:06:21;0.10;99.90
22716;DHT22;11525;51.152;4.456;2023-03-01T02:08:48;0.20;99.90
22716;DHT22;11525;51.152;4.456;2023-03-01T02:11:15;0.20;99.90
22716;DHT22;11525;51.152;4.456;2023-03-01T02:13:41;0.10;99.90
22716;DHT22;11525;51.152;4.456;2023-03-01T02:16:13;0.10;99.90
22716;DHT22;11525;51.152;4.456;2023-03-01T02:18:40;0.10;99.90
22716;DHT22;11525;51.152;4.456;2023-03-01T02:26:48;0.10;99.90
22716;DHT22;11525;51.152;4.456;2023-03-01T02:29:15;0.10;99.90
22716;DHT22;11525;51.152;4.456;2023-03-01T02:31:41;0.00;99.90
22716;DHT22;11525;51.152;4.456;2023-03-01T02:34:12;0.10;99.90
22716;DHT22;11525;51.152;4.456;2023-03-01T02:36:48;0.00;99.90
22716;DHT22;11525;51.152;4.456;2023-03-01T02:39:18;0.00;99.90
22716;DHT22;11525;51.152;4.456;2023-03-01T02:41:53;0.00;99.90
22716;DHT22;11525;51.152;4.456;2023-03-01T02:44:20;0.00;99.90
22716;DHT22;11525;51.152;4.456;2023-03-01T02:46:49;-0.10;99.90
22716;DHT22;11525;51.152;4.456;2023-03-01T02:57:35;-0.10;99.90
22716;DHT22;11525;51.152;4.456;2023-03-01T03:00:08;-0.10;99.90
22716;DHT22;11525;51.152;4.456;2023-03-01T03:02:36;-0.10;99.90
22716;DHT22;11525;51.152;4.456;2023-03-01T03:05:07;-0.20;99.90
22716;DHT22;11525;51.152;4.456;2023-03-01T03:07:35;-0.20;99.90
22716;DHT22;11525;51.152;4.456;2023-03-01T03:10:03;-0.20;99.90
22716;DHT22;11525;51.152;4.456;2023-03-01T03:12:29;-0.20;99.90
22716;DHT22;11525;51.152;4.456;2023-03-01T03:14:55;-0.20;99.90
22716;DHT22;11525;51.152;4.456;2023-03-01T03:17:21;-0.20;99.90
22716;DHT22;11525;51.152;4.456;2023-03-01T03:19:46;-0.30;99.90
22716;DHT22;11525;51.152;4.456;2023-03-01T03:22:13;-0.30;99.90
22716;DHT22;11525;51.152;4.456;2023-03-01T03:24:39;-0.30;99.90
22716;DHT22;11525;51.152;4.456;2023-03-01T03:27:05;-0.30;99.90
22716;DHT22;11525;51.152;4.456;2023-03-01T03:29:31;-0.40;99.90
22716;DHT22;11525;51.152;4.456;2023-03-01T03:31:58;-0.40;99.90
22716;DHT22;11525;51.152;4.456;2023-03-01T03:34:24;-0.40;99.90
22716;DHT22;11525;51.152;4.456;2023-03-01T03:36:56;-0.40;99.90
22716;DHT22;11525;51.152;4.456;2023-03-01T03:39:25;-0.40;99.90
22716;DHT22;11525;51.152;4.456;2023-03-01T03:41:52;-0.40;99.90
22716;DHT22;11525;51.152;4.456;2023-03-01T03:44:19;-0.50;99.90
22716;DHT22;11525;51.152;4.456;2023-03-01T03:46:45;-0.50;99.90
22716;DHT22;11525;51.152;4.456;2023-03-01T03:49:11;-0.50;99.90
22716;DHT22;11525;51.152;4.456;2023-03-01T03:51:37;-0.50;99.90
22716;DHT22;11525;51.152;4.456;2023-03-01T03:54:03;-0.50;99.90
22716;DHT22;11525;51.152;4.456;2023-03-01T03:56:29;-0.50;99.90
22716;DHT22;11525;51.152;4.456;2023-03-01T03:58:54;-0.50;99.90
22716;DHT22;11525;51.152;4.456;2023-03-01T04:01:21;-0.50;99.90
22716;DHT22;11525;51.152;4.456;2023-03-01T04:03:47;-0.50;99.90
22716;DHT22;11525;51.152;4.456;2023-03-01T04:06:14;-0.50;99.90
22716;DHT22;11525;51.152;4.456;2023-03-01T04:08:40;-0.50;99.90
22716;DHT22;11525;51.152;4.456;2023-03-01T04:11:06;-0.60;99.90
22716;DHT22;11525;51.152;4.456;2023-03-01T04:13:53;-0.60;99.90
22716;DHT22;11525;51.152;4.456;2023-03-01T04:16:19;-0.60;99.90
22716;DHT22;11525;51.152;4.456;2023-03-01T04:18:45;-0.60;99.90
22716;DHT22;11525;51.152;4.456;2023-03-01T04:21:11;-0.60;99.90
22716;DHT22;11525;51.152;4.456;2023-03-01T04:23:37;-0.70;99.90
22716;DHT22;11525;51.152;4.456;2023-03-01T04:26:03;-0.70;99.90
22716;DHT22;11525;51.152;4.456;2023-03-01T04:28:35;-0.70;99.90
22716;DHT22;11525;51.152;4.456;2023-03-01T04:31:09;-0.70;99.90
22716;DHT22;11525;51.152;4.456;2023-03-01T04:33:44;-0.70;99.90
22716;DHT22;11525;51.152;4.456;2023-03-01T04:36:11;-0.70;99.90
22716;DHT22;11525;51.152;4.456;2023-03-01T04:38:38;-0.70;99.90
22716;DHT22;11525;51.152;4.456;2023-03-01T04:41:09;-0.70;99.90
22716;DHT22;11525;51.152;4.456;2023-03-01T04:43:36;-0.70;99.90
22716;DHT22;11525;51.152;4.456;2023-03-01T04:46:07;-0.70;99.90
22716;DHT22;11525;51.152;4.456;2023-03-01T04:48:36;-0.70;99.90
22716;DHT22;11525;51.152;4.456;2023-03-01T04:51:03;-0.70;99.90
22716;DHT22;11525;51.152;4.456;2023-03-01T04:53:29;-0.70;99.90
22716;DHT22;11525;51.152;4.456;2023-03-01T04:55:55;-0.80;99.90
22716;DHT22;11525;51.152;4.456;2023-03-01T04:58:26;-0.80;99.90
22716;DHT22;11525;51.152;4.456;2023-03-01T05:00:52;-0.70;99.90
22716;DHT22;11525;51.152;4.456;2023-03-01T05:03:19;-0.80;99.90
22716;DHT22;11525;51.152;4.456;2023-03-01T05:05:47;-0.80;99.90
22716;DHT22;11525;51.152;4.456;2023-03-01T05:08:14;-0.80;99.90
22716;DHT22;11525;51.152;4.456;2023-03-01T05:10:52;-0.80;99.90
22716;DHT22;11525;51.152;4.456;2023-03-01T05:13:20;-0.80;99.90
22716;DHT22;11525;51.152;4.456;2023-03-01T05:15:48;-0.80;99.90
22716;DHT22;11525;51.152;4.456;2023-03-01T05:18:14;-0.80;99.90
22716;DHT22;11525;51.152;4.456;2023-03-01T05:20:40;-0.80;99.90
22716;DHT22;11525;51.152;4.456;2023-03-01T05:23:06;-0.80;99.90
22716;DHT22;11525;51.152;4.456;2023-03-01T05:25:33;-0.90;99.90
22716;DHT22;11525;51.152;4.456;2023-03-01T05:28:03;-0.90;99.90
22716;DHT22;11525;51.152;4.456;2023-03-01T05:30:33;-0.90;99.90
22716;DHT22;11525;51.152;4.456;2023-03-01T05:33:00;-0.90;99.90
22716;DHT22;11525;51.152;4.456;2023-03-01T05:35:26;-0.90;99.90
22716;DHT22;11525;51.152;4.456;2023-03-01T05:37:52;-0.90;99.90
22716;DHT22;11525;51.152;4.456;2023-03-01T05:40:20;-0.90;99.90
22716;DHT22;11525;51.152;4.456;2023-03-01T05:42:52;-0.90;99.90
22716;DHT22;11525;51.152;4.456;2023-03-01T05:45:19;-0.90;99.90
22716;DHT22;11525;51.152;4.456;2023-03-01T05:47:46;-0.80;99.90
22716;DHT22;11525;51.152;4.456;2023-03-01T05:50:14;-0.80;99.90
22716;DHT22;11525;51.152;4.456;2023-03-01T05:52:40;-0.90;99.90
22716;DHT22;11525;51.152;4.456;2023-03-01T05:55:06;-0.90;99.90
22716;DHT22;11525;51.152;4.456;2023-03-01T05:57:32;-0.90;99.90
22716;DHT22;11525;51.152;4.456;2023-03-01T05:59:57;-1.00;99.90
22716;DHT22;11525;51.152;4.456;2023-03-01T06:02:23;-1.00;99.90
22716;DHT22;11525;51.152;4.456;2023-03-01T06:04:49;-1.00;99.90
22716;DHT22;11525;51.152;4.456;2023-03-01T06:07:15;-1.00;99.90
22716;DHT22;11525;51.152;4.456;2023-03-01T06:09:40;-1.00;99.90
22716;DHT22;11525;51.152;4.456;2023-03-01T06:12:06;-1.00;99.90
22716;DHT22;11525;51.152;4.456;2023-03-01T06:14:32;-1.00;99.90
22716;DHT22;11525;51.152;4.456;2023-03-01T06:16:58;-1.00;99.90
22716;DHT22;11525;51.152;4.456;2023-03-01T06:19:24;-1.00;99.90
22716;DHT22;11525;51.152;4.456;2023-03-01T06:21:49;-1.00;99.90
22716;DHT22;11525;51.152;4.456;2023-03-01T06:24:15;-1.00;99.90
22716;DHT22;11525;51.152;4.456;2023-03-01T06:26:41;-1.00;99.90
22716;DHT22;11525;51.152;4.456;2023-03-01T06:29:07;-1.00;99.90
22716;DHT22;11525;51.152;4.456;2023-03-01T06:31:34;-0.90;99.90
22716;DHT22;11525;51.152;4.456;2023-03-01T06:34:00;-0.90;99.90
22716;DHT22;11525;51.152;4.456;2023-03-01T06:36:25;-1.00;99.90
22716;DHT22;11525;51.152;4.456;2023-03-01T06:38:51;-1.00;99.90
22716;DHT22;11525;51.152;4.456;2023-03-01T06:41:17;-0.90;99.90
22716;DHT22;11525;51.152;4.456;2023-03-01T06:43:42;-0.90;99.90
22716;DHT22;11525;51.152;4.456;2023-03-01T06:46:08;-1.00;99.90
22716;DHT22;11525;51.152;4.456;2023-03-01T06:48:34;-1.00;99.90
22716;DHT22;11525;51.152;4.456;2023-03-01T06:51:00;-1.00;99.90
22716;DHT22;11525;51.152;4.456;2023-03-01T06:53:29;-0.90;99.90
22716;DHT22;11525;51.152;4.456;2023-03-01T06:55:58;-0.90;99.90
22716;DHT22;11525;51.152;4.456;2023-03-01T06:58:26;-0.90;99.90
22716;DHT22;11525;51.152;4.456;2023-03-01T07:00:51;-0.80;99.90
22716;DHT22;11525;51.152;4.456;2023-03-01T07:03:17;-0.80;99.90
22716;DHT22;11525;51.152;4.456;2023-03-01T07:05:43;-0.80;99.90
22716;DHT22;11525;51.152;4.456;2023-03-01T07:08:10;-0.70;99.90
22716;DHT22;11525;51.152;4.456;2023-03-01T07:10:36;-0.70;99.90
22716;DHT22;11525;51.152;4.456;2023-03-01T07:13:01;-0.70;99.90
22716;DHT22;11525;51.152;4.456;2023-03-01T07:15:27;-0.60;99.90
22716;DHT22;11525;51.152;4.456;2023-03-01T07:17:54;-0.60;99.90
22716;DHT22;11525;51.152;4.456;2023-03-01T07:20:20;-0.50;99.90
22716;DHT22;11525;51.152;4.456;2023-03-01T07:22:51;-0.40;99.90
22716;DHT22;11525;51.152;4.456;2023-03-01T07:25:17;-0.40;99.90
22716;DHT22;11525;51.152;4.456;2023-03-01T07:27:43;-0.30;99.90
22716;DHT22;11525;51.152;4.456;2023-03-01T07:30:09;-0.30;99.90
22716;DHT22;11525;51.152;4.456;2023-03-01T07:32:35;-0.20;99.90
22716;DHT22;11525;51.152;4.456;2023-03-01T07:35:01;-0.20;99.90
22716;DHT22;11525;51.152;4.456;2023-03-01T07:37:27;-0.20;99.90
22716;DHT22;11525;51.152;4.456;2023-03-01T07:39:53;-0.10;99.90
22716;DHT22;11525;51.152;4.456;2023-03-01T07:42:18;0.00;99.90
22716;DHT22;11525;51.152;4.456;2023-03-01T07:44:44;0.10;99.90
22716;DHT22;11525;51.152;4.456;2023-03-01T07:47:10;0.20;99.90
22716;DHT22;11525;51.152;4.456;2023-03-01T07:49:36;0.40;99.90
22716;DHT22;11525;51.152;4.456;2023-03-01T07:52:01;1.10;99.90
22716;DHT22;11525;51.152;4.456;2023-03-01T07:54:27;2.10;99.90
22716;DHT22;11525;51.152;4.456;2023-03-01T07:56:53;3.60;99.90
22716;DHT22;11525;51.152;4.456;2023-03-01T07:59:20;4.00;99.90
22716;DHT22;11525;51.152;4.456;2023-03-01T08:01:46;3.60;99.90
22716;DHT22;11525;51.152;4.456;2023-03-01T08:04:11;3.80;99.90
22716;DHT22;11525;51.152;4.456;2023-03-01T08:06:37;3.70;99.90
22716;DHT22;11525;51.152;4.456;2023-03-01T08:09:03;3.90;99.90
22716;DHT22;11525;51.152;4.456;2023-03-01T08:11:29;4.00;99.90
22716;DHT22;11525;51.152;4.456;2023-03-01T08:13:55;4.50;99.90
22716;DHT22;11525;51.152;4.456;2023-03-01T08:16:22;4.90;99.90
22716;DHT22;11525;51.152;4.456;2023-03-01T08:18:47;5.20;99.90
22716;DHT22;11525;51.152;4.456;2023-03-01T08:21:15;5.10;99.90
22716;DHT22;11525;51.152;4.456;2023-03-01T08:23:42;5.10;99.90
22716;DHT22;11525;51.152;4.456;2023-03-01T08:26:11;5.10;99.90
22716;DHT22;11525;51.152;4.456;2023-03-01T08:28:38;5.30;99.90
22716;DHT22;11525;51.152;4.456;2023-03-01T08:31:35;5.30;99.90
22716;DHT22;11525;51.152;4.456;2023-03-01T08:34:02;5.00;99.90
22716;DHT22;11525;51.152;4.456;2023-03-01T08:36:31;5.10;99.90
22716;DHT22;11525;51.152;4.456;2023-03-01T08:38:58;5.60;99.90
22716;DHT22;11525;51.152;4.456;2023-03-01T08:41:24;5.50;99.90
22716;DHT22;11525;51.152;4.456;2023-03-01T08:43:50;5.80;99.90
22716;DHT22;11525;51.152;4.456;2023-03-01T08:46:16;6.70;99.90
22716;DHT22;11525;51.152;4.456;2023-03-01T08:48:42;8.10;99.90
22716;DHT22;11525;51.152;4.456;2023-03-01T08:51:19;9.10;99.20
22716;DHT22;11525;51.152;4.456;2023-03-01T08:53:45;9.10;98.10
22716;DHT22;11525;51.152;4.456;2023-03-01T08:56:11;10.00;96.10
22716;DHT22;11525;51.152;4.456;2023-03-01T08:58:38;11.00;92.90
22716;DHT22;11525;51.152;4.456;2023-03-01T09:01:09;11.00;91.30
22716;DHT22;11525;51.152;4.456;2023-03-01T09:03:36;11.20;90.10
22716;DHT22;11525;51.152;4.456;2023-03-01T09:06:03;10.90;89.00
22716;DHT22;11525;51.152;4.456;2023-03-01T09:08:29;10.70;90.10
22716;DHT22;11525;51.152;4.456;2023-03-01T09:10:55;10.70;87.10
22716;DHT22;11525;51.152;4.456;2023-03-01T09:13:21;10.40;86.80
22716;DHT22;11525;51.152;4.456;2023-03-01T09:15:50;10.90;89.00
22716;DHT22;11525;51.152;4.456;2023-03-01T09:18:16;11.10;84.20
22716;DHT22;11525;51.152;4.456;2023-03-01T09:20:42;10.40;85.80
22716;DHT22;11525;51.152;4.456;2023-03-01T09:23:07;10.40;85.80
22716;DHT22;11525;51.152;4.456;2023-03-01T09:25:34;11.30;82.80
22716;DHT22;11525;51.152;4.456;2023-03-01T09:28:00;11.10;82.80
22716;DHT22;11525;51.152;4.456;2023-03-01T09:30:26;11.90;79.80
22716;DHT22;11525;51.152;4.456;2023-03-01T09:32:52;12.70;78.20
22716;DHT22;11525;51.152;4.456;2023-03-01T09:35:18;11.20;76.60
22716;DHT22;11525;51.152;4.456;2023-03-01T09:37:45;10.40;80.70
22716;DHT22;11525;51.152;4.456;2023-03-01T09:40:17;11.30;79.80
22716;DHT22;11525;51.152;4.456;2023-03-01T09:43:08;11.90;76.60
22716;DHT22;11525;51.152;4.456;2023-03-01T09:45:41;12.20;74.90
22716;DHT22;11525;51.152;4.456;2023-03-01T09:48:15;12.40;73.20
22716;DHT22;11525;51.152;4.456;2023-03-01T09:50:43;12.20;75.00
22716;DHT22;11525;51.152;4.456;2023-03-01T09:53:27;11.10;75.70
22716;DHT22;11525;51.152;4.456;2023-03-01T09:56:14;10.80;77.20
22716;DHT22;11525;51.152;4.456;2023-03-01T10:01:48;9.80;80.90
22716;DHT22;11525;51.152;4.456;2023-03-01T10:04:32;11.60;77.80
22716;DHT22;11525;51.152;4.456;2023-03-01T10:09:48;12.20;71.10
22716;DHT22;11525;51.152;4.456;2023-03-01T10:12:20;10.70;76.90
22716;DHT22;11525;51.152;4.456;2023-03-01T10:15:09;11.80;73.90
22716;DHT22;11525;51.152;4.456;2023-03-01T10:17:55;10.90;75.40
22716;DHT22;11525;51.152;4.456;2023-03-01T10:22:47;12.10;71.60
22716;DHT22;11525;51.152;4.456;2023-03-01T10:28:26;12.50;69.90
22716;DHT22;11525;51.152;4.456;2023-03-01T10:30:53;13.20;68.10
22716;DHT22;11525;51.152;4.456;2023-03-01T10:33:32;12.40;68.10
22716;DHT22;11525;51.152;4.456;2023-03-01T10:35:58;12.50;66.70
22716;DHT22;11525;51.152;4.456;2023-03-01T10:38:24;12.20;68.30
22716;DHT22;11525;51.152;4.456;2023-03-01T10:40:59;12.30;68.00
22716;DHT22;11525;51.152;4.456;2023-03-01T10:43:47;13.20;66.90
22716;DHT22;11525;51.152;4.456;2023-03-01T10:46:31;13.40;63.20
22716;DHT22;11525;51.152;4.456;2023-03-01T10:51:41;11.20;69.60
22716;DHT22;11525;51.152;4.456;2023-03-01T10:54:25;10.50;69.30
22716;DHT22;11525;51.152;4.456;2023-03-01T10:57:01;10.20;70.10
22716;DHT22;11525;51.152;4.456;2023-03-01T10:59:38;8.00;76.90
22716;DHT22;11525;51.152;4.456;2023-03-01T11:02:28;7.10;79.60
22716;DHT22;11525;51.152;4.456;2023-03-01T11:07:48;6.40;85.90
22716;DHT22;11525;51.152;4.456;2023-03-01T11:10:23;6.40;86.20
22716;DHT22;11525;51.152;4.456;2023-03-01T11:12:54;6.60;85.40
22716;DHT22;11525;51.152;4.456;2023-03-01T11:15:31;6.20;87.10
22716;DHT22;11525;51.152;4.456;2023-03-01T11:17:57;6.30;87.40
22716;DHT22;11525;51.152;4.456;2023-03-01T11:20:30;6.50;87.90
22716;DHT22;11525;51.152;4.456;2023-03-01T11:23:13;6.70;87.10
22716;DHT22;11525;51.152;4.456;2023-03-01T11:26:01;6.80;85.70
22716;DHT22;11525;51.152;4.456;2023-03-01T11:28:29;6.60;85.60
22716;DHT22;11525;51.152;4.456;2023-03-01T11:31:09;6.40;87.70
22716;DHT22;11525;51.152;4.456;2023-03-01T11:33:59;6.50;88.60
22716;DHT22;11525;51.152;4.456;2023-03-01T11:36:49;6.40;88.90
22716;DHT22;11525;51.152;4.456;2023-03-01T11:39:37;6.50;88.10
22716;DHT22;11525;51.152;4.456;2023-03-01T11:42:17;6.30;88.30
22716;DHT22;11525;51.152;4.456;2023-03-01T11:44:47;6.20;89.10
22716;DHT22;11525;51.152;4.456;2023-03-01T11:50:39;6.00;90.80
22716;DHT22;11525;51.152;4.456;2023-03-01T11:53:13;6.00;90.60
22716;DHT22;11525;51.152;4.456;2023-03-01T11:55:59;6.20;90.70
22716;DHT22;11525;51.152;4.456;2023-03-01T12:03:58;6.80;91.80
22716;DHT22;11525;51.152;4.456;2023-03-01T12:07:01;7.20;89.50
22716;DHT22;11525;51.152;4.456;2023-03-01T12:09:45;6.90;89.60
22716;DHT22;11525;51.152;4.456;2023-03-01T12:12:32;6.60;90.10
22716;DHT22;11525;51.152;4.456;2023-03-01T12:26:30;6.40;91.30
22716;DHT22;11525;51.152;4.456;2023-03-01T12:29:23;6.50;91.40
22716;DHT22;11525;51.152;4.456;2023-03-01T12:35:20;6.60;91.10
22716;DHT22;11525;51.152;4.456;2023-03-01T12:37:54;6.60;91.40
22716;DHT22;11525;51.152;4.456;2023-03-01T12:40:37;6.60;91.30
22716;DHT22;11525;51.152;4.456;2023-03-01T12:54:46;6.30;91.70
22716;DHT22;11525;51.152;4.456;2023-03-01T12:58:04;6.50;91.80
22716;DHT22;11525;51.152;4.456;2023-03-01T13:01:05;6.90;91.50
22716;DHT22;11525;51.152;4.456;2023-03-01T13:04:03;6.70;90.80
22716;DHT22;11525;51.152;4.456;2023-03-01T13:10:06;6.80;89.70
22716;DHT22;11525;51.152;4.456;2023-03-01T13:15:36;6.80;90.40
22716;DHT22;11525;51.152;4.456;2023-03-01T13:20:59;6.50;90.90
22716;DHT22;11525;51.152;4.456;2023-03-01T13:23:38;6.60;90.80
22716;DHT22;11525;51.152;4.456;2023-03-01T13:26:14;6.60;90.80
22716;DHT22;11525;51.152;4.456;2023-03-01T13:28:53;6.70;91.10
22716;DHT22;11525;51.152;4.456;2023-03-01T13:34:02;6.90;90.70
22716;DHT22;11525;51.152;4.456;2023-03-01T13:39:03;7.10;89.60
22716;DHT22;11525;51.152;4.456;2023-03-01T13:47:15;7.10;88.30
22716;DHT22;11525;51.152;4.456;2023-03-01T13:49:56;7.20;88.60
22716;DHT22;11525;51.152;4.456;2023-03-01T13:52:45;7.30;88.70
22716;DHT22;11525;51.152;4.456;2023-03-01T13:57:46;7.40;86.40
22716;DHT22;11525;51.152;4.456;2023-03-01T14:00:36;7.40;86.80
22716;DHT22;11525;51.152;4.456;2023-03-01T14:03:15;7.50;88.40
22716;DHT22;11525;51.152;4.456;2023-03-01T14:06:04;7.40;88.40
22716;DHT22;11525;51.152;4.456;2023-03-01T14:08:34;7.30;87.90
22716;DHT22;11525;51.152;4.456;2023-03-01T14:14:31;7.20;89.40
22716;DHT22;11525;51.152;4.456;2023-03-01T14:17:03;7.40;89.50
22716;DHT22;11525;51.152;4.456;2023-03-01T14:19:33;7.40;89.20
22716;DHT22;11525;51.152;4.456;2023-03-01T14:24:51;7.40;90.10
22716;DHT22;11525;51.152;4.456;2023-03-01T14:27:18;7.30;90.10
22716;DHT22;11525;51.152;4.456;2023-03-01T14:29:45;7.50;89.00
22716;DHT22;11525;51.152;4.456;2023-03-01T14:32:26;7.20;89.00
22716;DHT22;11525;51.152;4.456;2023-03-01T14:34:52;7.30;89.40
22716;DHT22;11525;51.152;4.456;2023-03-01T14:37:32;7.40;88.70
22716;DHT22;11525;51.152;4.456;2023-03-01T14:40:01;7.40;89.00
22716;DHT22;11525;51.152;4.456;2023-03-01T14:42:31;7.30;89.20
22716;DHT22;11525;51.152;4.456;2023-03-01T14:45:00;7.30;89.30
22716;DHT22;11525;51.152;4.456;2023-03-01T14:47:30;7.20;90.10
22716;DHT22;11525;51.152;4.456;2023-03-01T14:50:08;7.20;90.50
22716;DHT22;11525;51.152;4.456;2023-03-01T14:52:40;7.10;90.30
22716;DHT22;11525;51.152;4.456;2023-03-01T14:55:21;7.00;90.00
22716;DHT22;11525;51.152;4.456;2023-03-01T14:57:51;7.10;90.10
22716;DHT22;11525;51.152;4.456;2023-03-01T15:00:26;7.20;90.10
22716;DHT22;11525;51.152;4.456;2023-03-01T15:02:54;7.20;90.00
22716;DHT22;11525;51.152;4.456;2023-03-01T15:05:32;7.10;90.30
22716;DHT22;11525;51.152;4.456;2023-03-01T15:08:01;7.10;90.40
22716;DHT22;11525;51.152;4.456;2023-03-01T15:10:30;7.10;90.30
22716;DHT22;11525;51.152;4.456;2023-03-01T15:13:10;7.20;90.40
22716;DHT22;11525;51.152;4.456;2023-03-01T15:15:39;7.20;90.10
22716;DHT22;11525;51.152;4.456;2023-03-01T15:18:21;7.20;90.70
22716;DHT22;11525;51.152;4.456;2023-03-01T15:20:48;7.10;90.70
22716;DHT22;11525;51.152;4.456;2023-03-01T15:23:24;7.10;90.60
22716;DHT22;11525;51.152;4.456;2023-03-01T15:25:51;7.30;90.10
22716;DHT22;11525;51.152;4.456;2023-03-01T15:28:26;7.40;89.80
22716;DHT22;11525;51.152;4.456;2023-03-01T15:33:31;7.30;90.50
22716;DHT22;11525;51.152;4.456;2023-03-01T15:35:59;7.20;90.90
22716;DHT22;11525;51.152;4.456;2023-03-01T15:40:56;7.00;91.20
22716;DHT22;11525;51.152;4.456;2023-03-01T15:43:45;7.00;91.40
22716;DHT22;11525;51.152;4.456;2023-03-01T15:46:28;7.00;91.20
22716;DHT22;11525;51.152;4.456;2023-03-01T15:48:57;7.00;91.30
22716;DHT22;11525;51.152;4.456;2023-03-01T15:51:29;7.10;91.10
22716;DHT22;11525;51.152;4.456;2023-03-01T15:53:57;7.20;91.00
22716;DHT22;11525;51.152;4.456;2023-03-01T15:56:23;7.10;91.00
22716;DHT22;11525;51.152;4.456;2023-03-01T15:58:49;7.00;91.40
22716;DHT22;11525;51.152;4.456;2023-03-01T16:01:16;7.10;91.20
22716;DHT22;11525;51.152;4.456;2023-03-01T16:03:42;7.30;90.80
22716;DHT22;11525;51.152;4.456;2023-03-01T16:06:12;7.30;90.50
22716;DHT22;11525;51.152;4.456;2023-03-01T16:08:38;7.40;90.60
22716;DHT22;11525;51.152;4.456;2023-03-01T16:11:18;7.50;90.40
22716;DHT22;11525;51.152;4.456;2023-03-01T16:13:44;7.70;90.00
22716;DHT22;11525;51.152;4.456;2023-03-01T16:16:12;7.40;90.50
22716;DHT22;11525;51.152;4.456;2023-03-01T16:18:41;7.50;91.20
22716;DHT22;11525;51.152;4.456;2023-03-01T16:21:11;7.40;90.40
22716;DHT22;11525;51.152;4.456;2023-03-01T16:23:37;7.00;90.10
22716;DHT22;11525;51.152;4.456;2023-03-01T16:26:03;6.90;90.30
22716;DHT22;11525;51.152;4.456;2023-03-01T16:28:29;6.90;90.30
22716;DHT22;11525;51.152;4.456;2023-03-01T16:30:55;6.80;90.50
22716;DHT22;11525;51.152;4.456;2023-03-01T16:33:20;6.80;90.30
22716;DHT22;11525;51.152;4.456;2023-03-01T16:35:46;6.70;90.50
22716;DHT22;11525;51.152;4.456;2023-03-01T16:38:12;6.70;90.60
22716;DHT22;11525;51.152;4.456;2023-03-01T16:40:38;6.60;90.90
22716;DHT22;11525;51.152;4.456;2023-03-01T16:43:04;6.80;90.80
22716;DHT22;11525;51.152;4.456;2023-03-01T16:45:35;6.60;91.00
22716;DHT22;11525;51.152;4.456;2023-03-01T16:48:02;6.50;91.40
22716;DHT22;11525;51.152;4.456;2023-03-01T16:50:28;6.40;91.60
22716;DHT22;11525;51.152;4.456;2023-03-01T16:52:54;6.60;92.90
22716;DHT22;11525;51.152;4.456;2023-03-01T16:55:20;6.60;91.70
22716;DHT22;11525;51.152;4.456;2023-03-01T16:57:46;6.50;91.80
22716;DHT22;11525;51.152;4.456;2023-03-01T17:00:12;6.40;91.90
22716;DHT22;11525;51.152;4.456;2023-03-01T17:02:39;6.30;92.00
22716;DHT22;11525;51.152;4.456;2023-03-01T17:05:07;6.20;92.40
22716;DHT22;11525;51.152;4.456;2023-03-01T17:07:34;6.40;92.40
22716;DHT22;11525;51.152;4.456;2023-03-01T17:10:00;6.30;92.30
22716;DHT22;11525;51.152;4.456;2023-03-01T17:12:26;6.30;92.40
22716;DHT22;11525;51.152;4.456;2023-03-01T17:14:53;6.20;92.70
22716;DHT22;11525;51.152;4.456;2023-03-01T17:17:19;6.10;92.90
22716;DHT22;11525;51.152;4.456;2023-03-01T17:19:45;6.00;93.10
22716;DHT22;11525;51.152;4.456;2023-03-01T17:22:11;6.10;93.30
22716;DHT22;11525;51.152;4.456;2023-03-01T17:24:39;6.00;93.40
22716;DHT22;11525;51.152;4.456;2023-03-01T17:27:08;5.90;93.80
22716;DHT22;11525;51.152;4.456;2023-03-01T17:29:34;5.80;94.30
22716;DHT22;11525;51.152;4.456;2023-03-01T17:32:00;5.70;94.40
22716;DHT22;11525;51.152;4.456;2023-03-01T17:34:27;5.60;95.00
22716;DHT22;11525;51.152;4.456;2023-03-01T17:36:52;5.60;94.90
22716;DHT22;11525;51.152;4.456;2023-03-01T17:39:19;5.50;95.10
22716;DHT22;11525;51.152;4.456;2023-03-01T17:41:51;5.40;95.50